createdAt,value
2022-12-15T00:00:47.665Z,98397.13
2022-12-15T00:03:26.415Z,98412.16
2022-12-15T00:06:05.370Z,98428.81
2022-12-15T00:08:43.905Z,98443.06
2022-12-15T00:11:23.870Z,98435.38
2022-12-15T00:14:01.732Z,98448.84
2022-12-15T00:16:40.371Z,98453.88
2022-12-15T00:19:19.076Z,98459.72
2022-12-15T00:21:56.725Z,98456.41
2022-12-15T00:24:35.142Z,98445.44
2022-12-15T00:27:14.606Z,98452.09
2022-12-15T00:29:53.134Z,98469.72
2022-12-15T00:32:31.691Z,98459.69
2022-12-15T00:35:10.084Z,98469.72
2022-12-15T00:37:48.927Z,98478.91
2022-12-15T00:40:17.673Z,98481.44
2022-12-15T00:42:49.547Z,98471.41
2022-12-15T00:45:18.694Z,98488.22
2022-12-15T00:47:46.668Z,98491.53
2022-12-15T00:50:25.016Z,98466.44
2022-12-15T00:53:03.403Z,98483.22
2022-12-15T00:55:41.992Z,98498.25
2022-12-15T00:58:21.931Z,98501.56
2022-12-15T01:01:00.674Z,98425.34
2022-12-15T01:03:39.302Z,98500.63
2022-12-15T01:06:18.963Z,98496.47
2022-12-15T01:08:57.364Z,98499.81
2022-12-15T01:11:35.965Z,98507.31
2022-12-15T01:14:16.143Z,98517.34
2022-12-15T01:16:54.321Z,98506.44
2022-12-15T01:19:32.895Z,98513.94
2022-12-15T01:22:01.715Z,98507.22
2022-12-15T01:24:30.334Z,98516.44
2022-12-15T01:26:59.222Z,98518.97
2022-12-15T01:29:29.422Z,98529.88
2022-12-15T01:31:58.102Z,98531.53
2022-12-15T01:34:26.715Z,98521.50
2022-12-15T01:36:55.426Z,98511.44
2022-12-15T01:39:24.063Z,98524.78
2022-12-15T01:41:51.733Z,98538.16
2022-12-15T01:44:22.242Z,98548.22
2022-12-15T01:46:56.358Z,98539.91
2022-12-15T01:49:30.746Z,98541.53
2022-12-15T01:52:03.217Z,98548.22
2022-12-15T01:54:35.976Z,98551.56
2022-12-15T01:57:08.017Z,98545.63
2022-12-15T01:59:40.604Z,98548.06
2022-12-15T02:02:11.293Z,98535.50
2022-12-15T02:04:40.323Z,98546.31
2022-12-15T02:07:12.686Z,98537.91
2022-12-15T02:09:42.327Z,98532.91
2022-12-15T02:12:23.002Z,98540.41
2022-12-15T02:15:12.235Z,98528.66
2022-12-15T02:17:51.751Z,98527.72
2022-12-15T02:20:44.415Z,98544.41
2022-12-15T02:23:45.936Z,98557.72
2022-12-15T02:26:38.600Z,98555.22
2022-12-15T02:29:23.052Z,98562.72
2022-12-15T02:32:00.232Z,98570.25
2022-12-15T02:34:36.255Z,98563.59
2022-12-15T02:37:11.524Z,98563.66
2022-12-15T02:39:40.375Z,98570.34
2022-12-15T02:42:11.862Z,98578.75
2022-12-15T02:44:45.504Z,98576.22
2022-12-15T02:47:24.703Z,98557.59
2022-12-15T02:50:19.490Z,98567.00
2022-12-15T02:53:02.456Z,98562.03
2022-12-15T02:55:40.663Z,98567.06
2022-12-15T02:58:16.953Z,98568.69
2022-12-15T03:00:51.778Z,98576.22
2022-12-15T03:03:24.002Z,98587.84
2022-12-15T03:05:55.720Z,98574.41
2022-12-15T03:08:25.575Z,98573.63
2022-12-15T03:10:56.021Z,98556.81
2022-12-15T03:13:24.941Z,98571.91
2022-12-15T03:15:54.815Z,98571.03
2022-12-15T03:18:25.145Z,98571.78
2022-12-15T03:20:53.794Z,98588.56
2022-12-15T03:23:23.274Z,98590.22
2022-12-15T03:25:51.866Z,98579.34
2022-12-15T03:28:20.654Z,98574.31
2022-12-15T03:30:51.175Z,98581.78
2022-12-15T03:33:21.693Z,98588.47
2022-12-15T03:35:52.315Z,98592.66
2022-12-15T03:38:21.115Z,98595.16
2022-12-15T03:40:49.609Z,98606.03
2022-12-15T03:43:18.195Z,98597.75
2022-12-15T03:45:46.808Z,98607.84
2022-12-15T03:48:15.693Z,98604.47
2022-12-15T03:50:45.783Z,98608.69
2022-12-15T03:53:15.863Z,98620.50
2022-12-15T03:55:44.715Z,98615.50
2022-12-15T03:58:13.254Z,98617.22
2022-12-15T04:00:42.034Z,98607.97
2022-12-15T04:03:12.489Z,98621.47
2022-12-15T04:05:42.132Z,98636.53
2022-12-15T04:08:10.944Z,98619.72
2022-12-15T04:10:40.986Z,98640.75
2022-12-15T04:13:11.759Z,98645.00
2022-12-15T04:15:42.291Z,98654.19
2022-12-15T04:18:12.012Z,98660.06
2022-12-15T04:20:40.891Z,98664.28
2022-12-15T04:23:09.812Z,98644.84
2022-12-15T04:25:48.844Z,98661.03
2022-12-15T04:28:28.883Z,98665.16
2022-12-15T04:31:10.903Z,98662.66
2022-12-15T04:33:52.524Z,98668.47
2022-12-15T04:36:30.964Z,98670.97
2022-12-15T04:39:10.531Z,98657.41
2022-12-15T04:41:49.365Z,98667.47
2022-12-15T04:44:30.112Z,98673.41
2022-12-15T04:47:07.834Z,98676.75
2022-12-15T04:49:46.895Z,98659.09
2022-12-15T04:52:25.373Z,98675.91
2022-12-15T04:55:06.274Z,98668.38
2022-12-15T04:57:44.771Z,98671.81
2022-12-15T05:00:26.253Z,98675.03
2022-12-15T05:03:04.873Z,98684.22
2022-12-15T05:05:43.374Z,98695.16
2022-12-15T05:08:22.144Z,98699.41
2022-12-15T05:11:00.706Z,98699.41
2022-12-15T05:13:39.846Z,98690.97
2022-12-15T05:16:19.772Z,98702.78
2022-12-15T05:18:58.332Z,98713.63
2022-12-15T05:21:36.673Z,98720.28
2022-12-15T05:24:15.373Z,98716.06
2022-12-15T05:26:53.451Z,98722.84
2022-12-15T05:29:32.898Z,98722.09
2022-12-15T05:32:02.876Z,98731.34
2022-12-15T05:34:32.924Z,98742.22
2022-12-15T05:37:04.199Z,98753.94
2022-12-15T05:39:32.819Z,98757.22
2022-12-15T05:42:01.828Z,98762.25
2022-12-15T05:44:31.237Z,98771.50
2022-12-15T05:46:59.816Z,98779.91
2022-12-15T05:49:29.897Z,98794.13
2022-12-15T05:51:58.498Z,98790.91
2022-12-15T05:54:27.089Z,98788.41
2022-12-15T05:56:55.729Z,98798.47
2022-12-15T05:59:24.277Z,98811.03
2022-12-15T06:01:53.125Z,98806.00
2022-12-15T06:04:21.804Z,98808.56
2022-12-15T06:06:51.915Z,98806.94
2022-12-15T06:09:20.630Z,98797.78
2022-12-15T06:11:49.249Z,98787.72
2022-12-15T06:14:18.194Z,98791.03
2022-12-15T06:16:50.105Z,98804.47
2022-12-15T06:19:19.514Z,98804.47
2022-12-15T06:21:48.854Z,98811.19
2022-12-15T06:24:18.971Z,98809.50
2022-12-15T06:26:49.803Z,98826.25
2022-12-15T06:29:19.208Z,98826.22
2022-12-15T06:31:48.035Z,98824.53
2022-12-15T06:34:18.720Z,98822.88
2022-12-15T06:36:47.518Z,98827.88
2022-12-15T06:39:18.909Z,98827.88
2022-12-15T06:41:47.537Z,98831.28
2022-12-15T06:44:17.767Z,98831.38
2022-12-15T06:46:46.949Z,98839.78
2022-12-15T06:49:15.969Z,98843.09
2022-12-15T06:51:45.239Z,98841.44
2022-12-15T06:54:13.981Z,98837.38
2022-12-15T06:56:43.898Z,98841.63
2022-12-15T06:59:13.749Z,98843.31
2022-12-15T07:01:43.304Z,98846.72
2022-12-15T07:04:12.178Z,98850.91
2022-12-15T07:06:42.547Z,98861.81
2022-12-15T07:09:17.554Z,98874.38
2022-12-15T07:11:50.459Z,98873.56
2022-12-15T07:14:19.224Z,98868.50
2022-12-15T07:16:47.787Z,98852.44
2022-12-15T07:19:16.365Z,98879.34
2022-12-15T07:21:48.688Z,98884.38
2022-12-15T07:24:18.015Z,98876.84
2022-12-15T07:26:49.090Z,98865.94
2022-12-15T07:29:23.011Z,98878.41
2022-12-15T07:31:52.836Z,98863.25
2022-12-15T07:34:22.057Z,98875.81
2022-12-15T07:36:52.762Z,98875.00
2022-12-15T07:39:22.808Z,98886.63
2022-12-15T07:41:52.848Z,98883.31
2022-12-15T07:44:21.729Z,98894.28
2022-12-15T07:46:50.503Z,98896.75
2022-12-15T07:49:27.146Z,98897.59
2022-12-15T07:51:59.439Z,98880.78
2022-12-15T07:54:32.804Z,98867.16
2022-12-15T07:57:03.657Z,98879.00
2022-12-15T07:59:32.521Z,98874.69
2022-12-15T08:02:01.731Z,98887.41
2022-12-15T08:04:31.038Z,98874.06
2022-12-15T08:07:00.500Z,98885.03
2022-12-15T08:09:29.258Z,98889.25
2022-12-15T08:11:57.863Z,98904.47
2022-12-15T08:14:28.996Z,98909.53
2022-12-15T08:16:57.759Z,98915.44
2022-12-15T08:19:26.274Z,98923.84
2022-12-15T08:21:55.178Z,98919.66
2022-12-15T08:24:23.891Z,98914.69
2022-12-15T08:26:53.523Z,98923.13
2022-12-15T08:29:53.288Z,98931.53
2022-12-15T08:32:14.944Z,98931.53
2022-12-15T08:34:43.843Z,98934.09
2022-12-15T08:37:12.400Z,98942.44
2022-12-15T08:39:41.098Z,98944.91
2022-12-15T08:42:13.205Z,98942.44
2022-12-15T08:44:43.248Z,98939.97
2022-12-15T08:47:13.217Z,98945.06
2022-12-15T08:49:41.944Z,98956.03
2022-12-15T08:52:11.933Z,98953.69
2022-12-15T08:54:40.597Z,98963.88
2022-12-15T08:57:09.399Z,98970.66
2022-12-15T08:59:38.142Z,98968.22
2022-12-15T09:02:07.331Z,98950.72
2022-12-15T09:04:38.240Z,98953.16
2022-12-15T09:07:06.818Z,98960.66
2022-12-15T09:09:35.747Z,98958.19
2022-12-15T09:12:06.236Z,98966.56
2022-12-15T09:14:35.942Z,98973.44
2022-12-15T09:17:05.219Z,98971.94
2022-12-15T09:19:35.946Z,98963.78
2022-12-15T09:22:08.045Z,98950.50
2022-12-15T09:24:36.675Z,98955.69
2022-12-15T09:27:05.468Z,98947.53
2022-12-15T09:29:34.335Z,98934.28
2022-12-15T09:32:05.548Z,98915.75
2022-12-15T09:34:38.169Z,98937.63
2022-12-15T09:37:08.479Z,98947.75
2022-12-15T09:39:38.101Z,98934.38
2022-12-15T09:42:07.279Z,98944.69
2022-12-15T09:44:36.728Z,98952.06
2022-12-15T09:47:18.439Z,98947.84
2022-12-15T09:49:56.844Z,98933.69
2022-12-15T09:52:30.335Z,98940.13
2022-12-15T09:54:59.695Z,98949.31
2022-12-15T09:57:37.475Z,98935.91
2022-12-15T10:00:21.443Z,98941.06
2022-12-15T10:03:12.769Z,98932.66
2022-12-15T10:06:15.458Z,98942.00
2022-12-15T10:08:51.953Z,98947.84
2022-12-15T10:11:27.837Z,98945.34
2022-12-15T10:14:06.709Z,98947.91
2022-12-15T10:16:53.166Z,98963.03
2022-12-15T10:19:32.611Z,98960.50
2022-12-15T10:22:01.710Z,98970.53
2022-12-15T10:27:36.491Z,98952.94
2022-12-15T10:30:07.564Z,98953.66
2022-12-15T10:32:51.004Z,98963.81
2022-12-15T10:35:23.746Z,98963.03
2022-12-15T10:37:52.521Z,98963.09
2022-12-15T10:40:50.329Z,98961.38
2022-12-15T10:43:28.036Z,98959.72
2022-12-15T10:46:06.406Z,98960.53
2022-12-15T10:48:35.057Z,98966.31
2022-12-15T10:51:20.651Z,98958.00
2022-12-15T10:53:51.228Z,98962.09
2022-12-15T10:59:26.138Z,98983.97
2022-12-15T11:01:54.896Z,98992.47
2022-12-15T11:04:28.754Z,98995.00
2022-12-15T11:06:59.643Z,98975.56
2022-12-15T11:09:34.617Z,98984.84
2022-12-15T11:12:29.358Z,98979.03
2022-12-15T11:14:58.037Z,98978.19
2022-12-15T11:17:26.571Z,98970.66
2022-12-15T11:20:03.347Z,98963.13
2022-12-15T11:22:42.066Z,98962.31
2022-12-15T11:25:34.989Z,98963.25
2022-12-15T11:28:12.636Z,98959.06
2022-12-15T11:30:46.970Z,98948.22
2022-12-15T11:33:16.105Z,98944.69
2022-12-15T11:35:57.761Z,98954.59
2022-12-15T11:38:36.224Z,98949.50
2022-12-15T11:41:14.517Z,98950.44
2022-12-15T11:44:06.814Z,98948.00
2022-12-15T11:46:44.893Z,98946.34
2022-12-15T11:49:41.642Z,98946.28
2022-12-15T11:52:18.720Z,98951.38
2022-12-15T11:54:55.097Z,98939.59
2022-12-15T11:57:46.659Z,98951.47
2022-12-15T12:00:23.436Z,98948.06
2022-12-15T12:03:06.162Z,98959.72
2022-12-15T12:05:46.400Z,98960.50
2022-12-15T12:08:33.224Z,98963.09
2022-12-15T12:11:10.932Z,98952.09
2022-12-15T12:13:52.180Z,98943.69
2022-12-15T12:16:33.542Z,98951.13
2022-12-15T12:19:06.886Z,98958.75
2022-12-15T12:21:39.250Z,98967.19
2022-12-15T12:24:18.141Z,98962.94
2022-12-15T12:26:50.250Z,98967.91
2022-12-15T12:29:22.944Z,98966.25
2022-12-15T12:32:05.221Z,98957.84
2022-12-15T12:34:46.414Z,98965.38
2022-12-15T12:37:26.915Z,98966.00
2022-12-15T12:40:02.813Z,98979.13
2022-12-15T12:42:39.544Z,98973.00
2022-12-15T12:45:13.349Z,98967.97
2022-12-15T12:47:50.373Z,98973.00
2022-12-15T12:50:21.671Z,98973.72
2022-12-15T12:52:53.499Z,98977.88
2022-12-15T12:55:31.094Z,98968.59
2022-12-15T12:58:01.351Z,98981.25
2022-12-15T13:00:32.219Z,98982.91
2022-12-15T13:03:22.174Z,98990.50
2022-12-15T13:05:52.423Z,98987.97
2022-12-15T13:08:45.795Z,98982.16
2022-12-15T13:11:41.528Z,98993.91
2022-12-15T13:14:22.509Z,98992.22
2022-12-15T13:20:11.495Z,98993.97
2022-12-15T13:22:41.675Z,98988.94
2022-12-15T13:25:42.682Z,98985.53
2022-12-15T13:28:42.946Z,98986.31
2022-12-15T13:31:33.933Z,98978.66
2022-12-15T13:34:18.143Z,98983.78
2022-12-15T13:36:58.303Z,98988.81
2022-12-15T13:39:56.392Z,98995.53
2022-12-15T13:42:48.285Z,99000.50
2022-12-15T13:45:36.948Z,99013.91
2022-12-15T13:48:38.322Z,99018.84
2022-12-15T13:51:25.545Z,99022.28
2022-12-15T13:54:00.830Z,99032.34
2022-12-15T13:56:56.435Z,99038.16
2022-12-15T13:59:35.557Z,99037.38
2022-12-15T14:02:05.069Z,99043.28
2022-12-15T14:04:33.778Z,99049.13
2022-12-15T14:07:03.777Z,99048.34
2022-12-15T14:09:37.027Z,99044.09
2022-12-15T14:12:13.023Z,99047.44
2022-12-15T14:14:49.564Z,99059.97
2022-12-15T14:17:20.278Z,99064.13
2022-12-15T14:19:51.472Z,99065.84
2022-12-15T14:22:28.105Z,99060.78
2022-12-15T14:25:03.714Z,99064.06
2022-12-15T14:27:34.526Z,99046.41
2022-12-15T14:30:29.690Z,99031.31
2022-12-15T14:33:03.426Z,99024.66
2022-12-15T14:35:37.965Z,99010.34
2022-12-15T14:38:13.487Z,99015.34
2022-12-15T14:40:44.220Z,99013.63
2022-12-15T14:43:20.933Z,99015.25
2022-12-15T14:45:55.848Z,99019.47
2022-12-15T14:48:41.150Z,99007.72
2022-12-15T14:51:13.304Z,99008.66
2022-12-15T14:53:44.718Z,99013.72
2022-12-15T14:56:15.925Z,99002.00
2022-12-15T14:58:44.806Z,99005.31
2022-12-15T15:01:27.201Z,99006.91
2022-12-15T15:03:07.442Z,98977.97
2022-12-15T15:03:10.457Z,98974.66
2022-12-15T15:04:01.486Z,99015.34
2022-12-15T15:06:36.774Z,99018.66
2022-12-15T15:09:19.174Z,99022.00
2022-12-15T15:11:51.727Z,99028.72
2022-12-15T15:14:26.826Z,99022.03
2022-12-15T15:17:06.396Z,99019.53
2022-12-15T15:19:39.731Z,99016.22
2022-12-15T15:22:27.185Z,99028.88
2022-12-15T15:24:55.818Z,99047.28
2022-12-15T15:27:27.435Z,99043.88
2022-12-15T15:30:20.935Z,99038.75
2022-12-15T15:33:02.431Z,99020.34
2022-12-15T15:35:35.133Z,99015.34
2022-12-15T15:38:07.275Z,99013.63
2022-12-15T15:40:35.952Z,99004.22
2022-12-15T15:43:11.744Z,99008.38
2022-12-15T15:45:42.707Z,99003.28
2022-12-15T15:48:18.295Z,99004.03
2022-12-15T15:50:47.453Z,98986.44
2022-12-15T15:53:20.556Z,98972.97
2022-12-15T15:55:51.827Z,98961.19
2022-12-15T15:58:20.597Z,98959.53
2022-12-15T16:00:49.393Z,98971.19
2022-12-15T16:03:19.696Z,98975.44
2022-12-15T16:05:48.898Z,98981.31
2022-12-15T16:08:21.042Z,98971.19
2022-12-15T16:10:52.769Z,98972.88
2022-12-15T16:13:25.933Z,98978.78
2022-12-15T16:15:55.759Z,98998.03
2022-12-15T16:18:25.844Z,99012.31
2022-12-15T16:20:54.604Z,98992.22
2022-12-15T16:23:29.453Z,99000.56
2022-12-15T16:26:00.544Z,99019.91
2022-12-15T16:28:32.099Z,99030.84
2022-12-15T16:31:04.255Z,99038.41
2022-12-15T16:33:34.424Z,99025.03
2022-12-15T16:36:03.547Z,99023.38
2022-12-15T16:38:35.754Z,99022.47
2022-12-15T16:41:08.644Z,99019.13
2022-12-15T16:43:41.576Z,99023.31
2022-12-15T16:46:15.907Z,99009.06
2022-12-15T16:48:45.992Z,99002.38
2022-12-15T16:51:28.854Z,99001.50
2022-12-15T16:53:57.666Z,99003.19
2022-12-15T16:56:26.250Z,98998.22
2022-12-15T16:59:15.563Z,98999.06
2022-12-15T17:01:46.426Z,98989.03
2022-12-15T17:04:17.556Z,99004.91
2022-12-15T17:06:46.694Z,98996.47
2022-12-15T17:09:20.560Z,99003.19
2022-12-15T17:11:49.691Z,98988.06
2022-12-15T17:14:18.282Z,98992.22
2022-12-15T17:16:47.065Z,98992.25
2022-12-15T17:19:21.128Z,99009.84
2022-12-15T17:21:54.150Z,99013.25
2022-12-15T17:24:24.234Z,99020.84
2022-12-15T17:26:52.835Z,99002.38
2022-12-15T17:29:25.428Z,99008.22
2022-12-15T17:31:54.198Z,99000.63
2022-12-15T17:34:30.550Z,99012.34
2022-12-15T17:37:02.539Z,99001.44
2022-12-15T17:39:32.197Z,99001.41
2022-12-15T17:42:02.539Z,98989.69
2022-12-15T17:44:35.514Z,98981.31
2022-12-15T17:47:06.767Z,98984.72
2022-12-15T17:49:38.897Z,98987.31
2022-12-15T17:52:18.065Z,98991.53
2022-12-15T17:54:46.743Z,98982.34
2022-12-15T17:57:15.415Z,98992.41
2022-12-15T17:59:44.188Z,98987.41
2022-12-15T18:02:14.756Z,98987.38
2022-12-15T18:04:45.299Z,98989.91
2022-12-15T18:07:20.238Z,98982.34
2022-12-15T18:09:49.726Z,98981.53
2022-12-15T18:12:21.107Z,98981.53
2022-12-15T18:14:50.103Z,98970.66
2022-12-15T18:17:18.724Z,98968.06
2022-12-15T18:19:49.126Z,98941.00
2022-12-15T18:22:22.648Z,98962.06
2022-12-15T18:24:54.178Z,98968.66
2022-12-15T18:27:25.312Z,98981.31
2022-12-15T18:29:54.129Z,98981.31
2022-12-15T18:32:25.938Z,98983.03
2022-12-15T18:34:56.749Z,98972.97
2022-12-15T18:37:25.924Z,98972.97
2022-12-15T18:40:02.441Z,98971.25
2022-12-15T18:42:33.735Z,98972.88
2022-12-15T18:45:05.192Z,98977.06
2022-12-15T18:47:34.005Z,98971.19
2022-12-15T18:50:04.030Z,98970.38
2022-12-15T18:52:34.848Z,98982.94
2022-12-15T18:55:03.901Z,98987.19
2022-12-15T18:57:36.188Z,98988.84
2022-12-15T19:00:25.817Z,98983.03
2022-12-15T19:02:55.569Z,98976.28
2022-12-15T19:05:32.901Z,98970.47
2022-12-15T19:08:08.486Z,98961.28
2022-12-15T19:10:40.386Z,98954.63
2022-12-15T19:13:14.315Z,98968.84
2022-12-15T19:15:43.216Z,98962.97
2022-12-15T19:18:25.126Z,98963.88
2022-12-15T19:21:05.271Z,98964.66
2022-12-15T19:23:34.610Z,98976.28
2022-12-15T19:26:03.801Z,98979.63
2022-12-15T19:28:33.964Z,98980.50
2022-12-15T19:31:02.643Z,98973.78
2022-12-15T19:33:31.461Z,98966.16
2022-12-15T19:36:01.832Z,98979.47
2022-12-15T19:38:33.715Z,98969.41
2022-12-15T19:41:02.658Z,98970.19
2022-12-15T19:43:31.672Z,98971.84
2022-12-15T19:46:00.827Z,98967.66
2022-12-15T19:48:29.644Z,98955.97
2022-12-15T19:50:58.345Z,98939.16
2022-12-15T19:53:30.424Z,98926.59
2022-12-15T19:56:01.825Z,98923.28
2022-12-15T19:58:32.445Z,98923.19
2022-12-15T20:01:03.760Z,98926.59
2022-12-15T20:03:34.536Z,98929.13
2022-12-15T20:06:05.185Z,98924.09
2022-12-15T20:08:39.549Z,98921.63
2022-12-15T20:11:16.516Z,98910.72
2022-12-15T20:13:45.265Z,98906.53
2022-12-15T20:16:17.519Z,98899.78
2022-12-15T20:18:47.895Z,98903.19
2022-12-15T20:21:22.274Z,98900.72
2022-12-15T20:23:55.943Z,98885.66
2022-12-15T20:26:25.835Z,98893.09
2022-12-15T20:28:55.470Z,98894.88
2022-12-15T20:31:25.569Z,98888.88
2022-12-15T20:33:54.826Z,98893.19
2022-12-15T20:36:26.773Z,98904.13
2022-12-15T20:38:58.245Z,98894.06
2022-12-15T20:41:29.265Z,98904.91
2022-12-15T20:43:59.327Z,98885.56
2022-12-15T20:46:33.867Z,98890.69
2022-12-15T20:49:03.705Z,98886.47
2022-12-15T20:51:34.285Z,98884.00
2022-12-15T20:54:04.415Z,98877.28
2022-12-15T20:56:33.054Z,98880.66
2022-12-15T20:59:01.695Z,98872.31
2022-12-15T21:01:33.999Z,98863.91
2022-12-15T21:04:05.986Z,98853.00
2022-12-15T21:06:34.685Z,98850.50
2022-12-15T21:09:08.087Z,98850.53
2022-12-15T21:11:37.046Z,98848.81
2022-12-15T21:14:11.207Z,98850.50
2022-12-15T21:16:39.771Z,98847.19
2022-12-15T21:19:20.252Z,98838.84
2022-12-15T21:21:55.518Z,98833.81
2022-12-15T21:24:28.385Z,98833.81
2022-12-15T21:26:57.555Z,98825.31
2022-12-15T21:29:29.084Z,98822.03
2022-12-15T21:31:58.707Z,98828.78
2022-12-15T21:34:27.292Z,98825.34
2022-12-15T21:36:56.414Z,98839.63
2022-12-15T21:39:30.137Z,98847.97
2022-12-15T21:42:01.213Z,98845.47
2022-12-15T21:44:30.799Z,98839.72
2022-12-15T21:46:59.405Z,98839.66
2022-12-15T21:49:27.267Z,98831.25
2022-12-15T21:51:58.924Z,98825.44
2022-12-15T21:54:32.987Z,98822.09
2022-12-15T21:57:03.278Z,98818.75
2022-12-15T21:59:34.120Z,98820.47
2022-12-15T22:02:14.814Z,98817.13
2022-12-15T22:04:43.585Z,98813.81
2022-12-15T22:07:17.484Z,98812.13
2022-12-15T22:09:47.783Z,98796.19
2022-12-15T22:12:21.555Z,98794.47
2022-12-15T22:14:50.794Z,98790.28
2022-12-15T22:17:22.703Z,98788.59
2022-12-15T22:19:51.440Z,98783.56
2022-12-15T22:22:20.609Z,98773.47
2022-12-15T22:24:50.746Z,98783.63
2022-12-15T22:27:21.845Z,98788.66
2022-12-15T22:29:50.898Z,98785.34
2022-12-15T22:32:19.514Z,98774.41
2022-12-15T22:34:48.194Z,98768.59
2022-12-15T22:37:16.784Z,98767.75
2022-12-15T22:39:45.534Z,98762.72
2022-12-15T22:42:18.674Z,98750.94
2022-12-15T22:44:47.586Z,98747.63
2022-12-15T22:47:16.175Z,98740.06
2022-12-15T22:49:44.992Z,98740.06
2022-12-15T22:52:18.173Z,98733.41
2022-12-15T22:54:48.302Z,98738.44
2022-12-15T22:57:23.744Z,98741.75
2022-12-15T23:00:01.026Z,98731.69
2022-12-15T23:02:32.732Z,98735.06
2022-12-15T23:05:01.725Z,98741.81
2022-12-15T23:07:30.385Z,98741.81
2022-12-15T23:10:13.422Z,98736.78
2022-12-15T23:12:43.563Z,98736.78
2022-12-15T23:15:22.626Z,98736.78
2022-12-15T23:17:51.672Z,98729.25
2022-12-15T23:20:20.596Z,98722.56
2022-12-15T23:22:49.274Z,98726.78
2022-12-15T23:25:17.865Z,98720.06
2022-12-15T23:27:47.874Z,98715.03
2022-12-15T23:30:16.744Z,98716.75
2022-12-15T23:32:45.281Z,98702.56
2022-12-15T23:35:14.176Z,98700.88
2022-12-15T23:37:42.742Z,98698.38
2022-12-15T23:40:12.650Z,98691.69
2022-12-15T23:42:41.233Z,98695.06
2022-12-15T23:45:12.474Z,98691.75
2022-12-15T23:47:41.863Z,98695.94
2022-12-15T23:50:11.434Z,98687.59
2022-12-15T23:52:39.841Z,98680.91
2022-12-15T23:55:10.444Z,98678.38
2022-12-15T23:57:39.802Z,98670.03
